Wetterdaten: September 2011
Datum Temp Feuchte Luftdruck Regen Wind Richtung Sonnenschein UV Solar Windben
01.09.2011 11,1 C 88 % 1015,2 hPa 0,0 l/m 1,3 km/h NW 5,17 h 2,1 UV-I 270 W/m 3,2 km/h
02.09.2011 15,9 C 85 % 1013,3 hPa 0,2 l/m 0,8 km/h S 9,75 h 2,7 UV-I 383 W/m 2,4 km/h
03.09.2011 18,6 C 87 % 1011,5 hPa 0,0 l/m 1,2 km/h S 8,17 h 2,3 UV-I 321 W/m 3,6 km/h
04.09.2011 19,3 C 92 % 1008,7 hPa 11,4 l/m 5,4 km/h S 2,17 h 2,1 UV-I 202 W/m 8,8 km/h
05.09.2011 15,1 C 79 % 1014,6 hPa 0,2 l/m 7,3 km/h S-SW 4,67 h 2,2 UV-I 252 W/m 20,9 km/h
06.09.2011 14,6 C 76 % 1013,6 hPa 1,6 l/m 11,7 km/h S 4,25 h 2,2 UV-I 239 W/m 24,9 km/h
07.09.2011 12,8 C 87 % 1009,2 hPa 5,0 l/m 5,7 km/h S 1,42 h 1,6 UV-I 162 W/m 21,7 km/h
08.09.2011 11,8 C 96 % 1007,9 hPa 18,2 l/m 6,7 km/h S-SW 0,00 h 1,1 UV-I 77 W/m 25,3 km/h
09.09.2011 16,0 C 94 % 1011,6 hPa 1,4 l/m 0,8 km/h S-SW 0,92 h 1,7 UV-I 147 W/m 5,3 km/h
10.09.2011 19,8 C 89 % 1010,0 hPa 1,6 l/m 5,6 km/h S 4,00 h 2,5 UV-I 256 W/m 12,4 km/h
11.09.2011 16,9 C 91 % 1009,0 hPa 9,0 l/m 1,9 km/h S 2,83 h 1,6 UV-I 144 W/m 10,4 km/h
12.09.2011 17,0 C 82 % 1009,4 hPa 0,0 l/m 16,1 km/h S 4,00 h 2,2 UV-I 248 W/m 25,4 km/h
13.09.2011 14,4 C 78 % 1011,0 hPa 0,0 l/m 3,8 km/h S-SW 4,33 h 2,5 UV-I 286 W/m 12,5 km/h
14.09.2011 12,9 C 77 % 1016,4 hPa 0,0 l/m 4,2 km/h S-SW 2,25 h 1,7 UV-I 216 W/m 15,3 km/h
15.09.2011 10,9 C 86 % 1020,3 hPa 0,0 l/m 0,8 km/h NW 4,25 h 2,1 UV-I 251 W/m 8,1 km/h
16.09.2011 13,6 C 80 % 1016,3 hPa 0,0 l/m 6,3 km/h SO 7,17 h 2,4 UV-I 306 W/m 14,1 km/h
17.09.2011 14,6 C 85 % 1009,0 hPa 0,2 l/m 2,8 km/h S 4,08 h 2,1 UV-I 241 W/m 8,4 km/h
18.09.2011 10,2 C 91 % 1004,5 hPa 0,6 l/m 1,0 km/h S-SW 1,25 h 1,2 UV-I 147 W/m 3,6 km/h
19.09.2011 9,6 C 89 % 1014,2 hPa 0,0 l/m 3,6 km/h S 3,00 h 1,7 UV-I 200 W/m 8,0 km/h
20.09.2011 12,5 C 88 % 1022,6 hPa 0,2 l/m 0,6 km/h S 1,50 h 1,4 UV-I 143 W/m 2,8 km/h
21.09.2011 13,8 C 81 % 1018,8 hPa 0,0 l/m 3,4 km/h S-SW 0,58 h 1,3 UV-I 133 W/m 7,7 km/h
22.09.2011 12,4 C 84 % 1018,3 hPa 0,2 l/m 1,6 km/h S-SW 1,50 h 1,6 UV-I 160 W/m 12,1 km/h
23.09.2011 10,4 C 89 % 1018,8 hPa 0,0 l/m 0,7 km/h NW 4,58 h 1,8 UV-I 241 W/m 4,0 km/h
24.09.2011 11,4 C 88 % 1017,2 hPa 0,2 l/m 1,9 km/h S-SO 8,83 h 2,2 UV-I 314 W/m 6,0 km/h
25.09.2011 13,6 C 89 % 1019,4 hPa 0,2 l/m 0,3 km/h S-SW 8,92 h 2,0 UV-I 314 W/m 1,2 km/h
26.09.2011 16,0 C 86 % 1023,6 hPa 0,2 l/m 2,0 km/h S 7,42 h 1,8 UV-I 264 W/m 4,8 km/h
27.09.2011 15,1 C 91 % 1029,5 hPa 0,0 l/m 0,0 km/h N-NW 3,42 h 1,6 UV-I 211 W/m 0,4 km/h
28.09.2011 15,4 C 90 % 1030,0 hPa 0,2 l/m 0,3 km/h SO 5,92 h 1,8 UV-I 240 W/m 2,0 km/h
29.09.2011 13,8 C 86 % 1028,3 hPa 0,2 l/m 0,6 km/h SO 8,58 h 1,9 UV-I 291 W/m 3,6 km/h
30.09.2011 14,8 C 81 % 1026,7 hPa 0,0 l/m 2,7 km/h S-SO 9,08 h 2,0 UV-I 314 W/m 5,2 km/h
Min-Datum 24.09.11 30.09.11 18.09.11 18 Tage 01.09.11 - - - - 01.09.11
Min-Zeit 04:15 15:50 07:00 - 00:00 - - - - 00:00
Minimum 5,7 C 47 % 1001,8 hPa - 0,0 km/h - - - - 0,0 km/h
Max-Datum 03.09.11 10.09.11 28.09.11 08.09.11 06.09.11 - 02.09.11 05.09.11 01.09.11 06.09.11
Max-Zeit 16:05 02:00 11:30 20:20 14:20 - 18:50 13:25 15:00 11:05
Maximum 27,1 C 99 % 1031,5 hPa 18,2 l/m 31,6 km/h
S
- 9,67 h 5,4 UV-I 872 W/m 53,1 km/h
S
Durchschnitt 14,1 C 86 % 1016,0 hPa #50,8 l/m 3,4 km/h S #134:00 h 1,9 UV-I 232 W/m 9,5 km/h

Durchschnitt Minimum Temp.9,7 C
Durchschnitt Maximum Temp.19,6 C